Time;durP1;ratioP1;P1;durP2;ratioP2;P2;SDS_P1;SDS_P2;PMS_P1;PMS_P2;Temp;Humidity;BMP_temperature;BMP_pressure;BME280_temperature;BME280_humidity;BME280_pressure;Samples;Min_cycle;Max_cycle;Signal;HPM_P1;HPM_P2
2023/10/16 00:01:51;;;;;;;3.78;1.70;;;10.40;99.90;;;;;;4959089;29;20228;-87
2023/10/16 00:04:21;;;;;;;4.35;1.60;;;10.40;99.90;;;;;;4958005;29;20287;-86
2023/10/16 00:06:50;;;;;;;3.08;1.10;;;10.30;99.90;;;;;;4958106;29;20247;-81
2023/10/16 00:09:22;;;;;;;2.00;1.65;;;10.30;99.90;;;;;;4956780;29;20224;-81
2023/10/16 00:11:49;;;;;;;3.00;1.58;;;10.30;99.90;;;;;;4957460;29;20295;-82
2023/10/16 00:14:24;;;;;;;1.70;1.48;;;10.20;99.90;;;;;;4956750;29;20228;-80
2023/10/16 00:16:51;;;;;;;3.28;1.45;;;10.20;99.90;;;;;;4957143;29;20228;-87
2023/10/16 00:19:18;;;;;;;3.78;1.30;;;10.20;99.90;;;;;;4957075;29;20240;-81
2023/10/16 00:21:46;;;;;;;1.83;1.20;;;10.30;99.90;;;;;;4956143;29;20682;-81
2023/10/16 00:24:16;;;;;;;3.30;1.55;;;10.20;99.90;;;;;;4957800;29;20285;-87
2023/10/16 00:26:49;;;;;;;3.28;1.50;;;10.20;99.90;;;;;;4957686;29;20652;-82
2023/10/16 00:29:24;;;;;;;2.08;1.35;;;10.20;99.90;;;;;;4957365;29;20224;-82
2023/10/16 00:31:52;;;;;;;5.32;1.50;;;10.20;99.90;;;;;;4956976;29;20556;-81
2023/10/16 00:34:22;;;;;;;2.88;1.75;;;10.20;99.90;;;;;;4956740;29;20307;-81
2023/10/16 00:36:53;;;;;;;2.40;1.40;;;10.20;99.90;;;;;;4956557;29;20228;-81
2023/10/16 00:39:26;;;;;;;2.45;1.30;;;10.10;99.90;;;;;;4956768;28;20311;-88
2023/10/16 00:41:53;;;;;;;3.30;1.25;;;10.10;99.90;;;;;;4957640;29;20283;-87
2023/10/16 00:44:22;;;;;;;7.25;1.40;;;10.10;99.90;;;;;;4956878;29;20228;-87
2023/10/16 00:46:49;;;;;;;3.60;1.45;;;10.10;99.90;;;;;;4957286;29;20236;-81
2023/10/16 00:49:18;;;;;;;3.05;1.52;;;10.10;99.90;;;;;;4958018;29;20286;-87
2023/10/16 00:51:49;;;;;;;4.85;1.80;;;10.10;99.90;;;;;;4957354;29;20290;-87
2023/10/16 00:54:33;;;;;;;2.42;1.65;;;10.10;99.90;;;;;;4957115;29;20563;-87
2023/10/16 00:57:07;;;;;;;3.28;1.88;;;10.00;99.90;;;;;;4946023;29;20219;-87
2023/10/16 00:59:36;;;;;;;2.45;1.40;;;10.10;99.90;;;;;;4956403;29;20335;-81
2023/10/16 01:02:08;;;;;;;3.78;1.65;;;10.00;99.90;;;;;;4956484;29;20286;-82
2023/10/16 01:04:37;;;;;;;4.22;2.15;;;10.00;99.90;;;;;;4957034;29;20231;-87
2023/10/16 01:07:05;;;;;;;3.38;1.48;;;10.00;99.90;;;;;;4956632;29;20224;-88
2023/10/16 01:09:35;;;;;;;3.90;1.63;;;10.00;99.90;;;;;;4960153;29;20239;-89
2023/10/16 01:12:06;;;;;;;4.15;1.92;;;10.00;99.90;;;;;;4957304;29;20220;-88
2023/10/16 01:14:37;;;;;;;1.45;1.33;;;10.00;99.90;;;;;;4956122;29;20272;-87
2023/10/16 01:17:08;;;;;;;8.60;2.20;;;10.00;99.90;;;;;;4955328;29;20642;-81
2023/10/16 01:19:36;;;;;;;2.20;1.38;;;10.00;99.90;;;;;;4955390;29;20311;-81
2023/10/16 01:22:03;;;;;;;2.35;1.27;;;10.00;99.90;;;;;;4955512;29;20227;-80
2023/10/16 01:24:31;;;;;;;1.20;0.90;;;9.90;99.90;;;;;;4955609;29;20254;-81
2023/10/16 01:27:06;;;;;;;9.80;1.55;;;10.00;99.90;;;;;;4955563;29;20299;-81
2023/10/16 01:29:34;;;;;;;2.30;1.30;;;9.90;99.90;;;;;;4955818;29;20636;-81
2023/10/16 01:32:01;;;;;;;2.08;1.38;;;9.90;99.90;;;;;;4954919;29;20243;-81
2023/10/16 01:34:31;;;;;;;1.88;1.60;;;9.90;99.90;;;;;;4955471;29;20228;-81
2023/10/16 01:37:20;;;;;;;2.78;1.73;;;9.90;99.90;;;;;;4954875;29;20307;-81
2023/10/16 01:39:53;;;;;;;1.80;1.50;;;9.90;99.90;;;;;;4944817;29;20319;-87
2023/10/16 01:42:21;;;;;;;2.20;1.48;;;9.90;99.90;;;;;;4955391;29;20228;-81
2023/10/16 01:44:51;;;;;;;1.70;1.50;;;9.90;99.90;;;;;;4955148;29;20231;-88
2023/10/16 01:47:18;;;;;;;2.15;1.20;;;9.90;99.90;;;;;;4956468;29;20303;-87
2023/10/16 01:49:50;;;;;;;3.65;1.75;;;9.80;99.90;;;;;;4955913;28;20246;-82
2023/10/16 01:52:17;;;;;;;3.40;1.60;;;9.90;99.90;;;;;;4954561;29;20231;-82
2023/10/16 01:54:45;;;;;;;2.10;1.20;;;9.80;99.90;;;;;;4955298;29;20640;-82
2023/10/16 01:57:14;;;;;;;1.80;1.40;;;9.80;99.90;;;;;;4955543;29;20360;-81
2023/10/16 01:59:44;;;;;;;3.42;1.45;;;9.80;99.90;;;;;;4955410;29;20673;-81
2023/10/16 02:02:12;;;;;;;3.20;1.75;;;9.80;99.90;;;;;;4954390;29;20235;-81
2023/10/16 02:04:40;;;;;;;1.80;1.30;;;9.80;99.90;;;;;;4955225;29;20236;-81
2023/10/16 02:07:08;;;;;;;2.38;1.45;;;9.80;99.90;;;;;;4954862;29;20239;-81
2023/10/16 02:09:37;;;;;;;3.45;1.42;;;9.80;99.90;;;;;;4945747;29;20690;-86
2023/10/16 02:12:29;;;;;;;1.58;1.30;;;9.80;99.90;;;;;;4955163;29;20266;-86
2023/10/16 02:14:56;;;;;;;4.97;1.40;;;9.80;99.90;;;;;;4948083;29;20295;-81
2023/10/16 02:17:23;;;;;;;2.40;1.52;;;9.80;99.90;;;;;;4955278;29;20232;-81
2023/10/16 02:19:51;;;;;;;3.97;1.50;;;9.80;99.90;;;;;;4954487;29;20291;-87
2023/10/16 02:22:18;;;;;;;4.05;1.80;;;9.80;99.90;;;;;;4955257;29;20308;-81
2023/10/16 02:24:48;;;;;;;1.83;1.65;;;9.70;99.90;;;;;;4954417;29;20295;-81
2023/10/16 02:27:18;;;;;;;2.08;1.35;;;9.70;99.90;;;;;;4955189;29;20692;-80
2023/10/16 02:29:49;;;;;;;2.70;2.25;;;9.70;99.90;;;;;;4954461;29;20228;-80
2023/10/16 02:32:16;;;;;;;2.28;1.35;;;9.70;99.90;;;;;;4954864;29;20220;-81
2023/10/16 02:34:43;;;;;;;2.15;1.20;;;9.70;99.90;;;;;;4954308;29;20616;-81
2023/10/16 02:37:11;;;;;;;2.58;1.30;;;9.60;99.90;;;;;;4956386;29;20610;-87
2023/10/16 02:39:41;;;;;;;2.28;1.30;;;9.70;99.90;;;;;;4955840;29;20254;-87
2023/10/16 02:42:11;;;;;;;1.75;1.00;;;9.60;99.90;;;;;;4955421;29;20228;-87
2023/10/16 02:44:45;;;;;;;1.83;1.55;;;9.60;99.90;;;;;;4956121;29;20228;-88
2023/10/16 02:47:19;;;;;;;2.33;1.33;;;9.60;99.90;;;;;;4955187;29;20224;-81
2023/10/16 02:49:48;;;;;;;5.22;1.45;;;9.60;99.90;;;;;;4954794;29;20302;-81
2023/10/16 02:52:17;;;;;;;1.70;1.15;;;9.60;99.90;;;;;;4955356;29;20369;-87
2023/10/16 02:54:45;;;;;;;5.00;1.48;;;9.60;99.90;;;;;;4956542;29;20246;-86
2023/10/16 02:57:12;;;;;;;5.60;2.00;;;9.60;99.90;;;;;;4953993;29;20705;-80
2023/10/16 02:59:39;;;;;;;3.95;2.00;;;9.60;99.90;;;;;;4954942;29;20228;-80
2023/10/16 03:02:13;;;;;;;4.05;2.58;;;9.50;99.90;;;;;;4955762;28;20315;-87
2023/10/16 03:04:43;;;;;;;1.95;1.60;;;9.60;99.90;;;;;;4958409;29;20314;-81
2023/10/16 03:07:11;;;;;;;5.80;2.20;;;9.60;99.90;;;;;;4958016;29;20319;-81
2023/10/16 03:09:43;;;;;;;4.35;2.05;;;9.60;99.90;;;;;;4958232;29;20220;-87
2023/10/16 03:12:10;;;;;;;4.78;2.10;;;9.50;99.90;;;;;;4958859;29;20232;-87
2023/10/16 03:14:45;;;;;;;1.63;1.30;;;9.60;99.90;;;;;;4959399;29;20244;-87
2023/10/16 03:17:19;;;;;;;4.63;2.17;;;9.60;99.90;;;;;;4958933;29;20227;-87
2023/10/16 03:19:48;;;;;;;1.77;1.50;;;9.50;99.90;;;;;;4958840;29;20221;-87
2023/10/16 03:22:17;;;;;;;8.20;2.33;;;9.50;99.90;;;;;;4958225;29;20228;-87
2023/10/16 03:24:45;;;;;;;3.60;1.75;;;9.50;99.90;;;;;;4959137;29;20619;-86
2023/10/16 03:27:26;;;;;;;5.75;1.95;;;9.50;99.90;;;;;;4959097;29;20228;-86
2023/10/16 03:29:54;;;;;;;2.58;1.63;;;9.50;99.90;;;;;;4957752;29;20228;-87
2023/10/16 03:32:21;;;;;;;2.75;2.17;;;9.50;99.90;;;;;;4958565;29;20224;-86
2023/10/16 03:34:49;;;;;;;3.30;2.33;;;9.50;99.90;;;;;;4957759;29;20232;-86
2023/10/16 03:37:18;;;;;;;4.63;1.90;;;9.50;99.90;;;;;;4958867;29;20234;-86
2023/10/16 03:39:46;;;;;;;3.13;1.83;;;9.50;99.90;;;;;;4957253;29;20228;-86
2023/10/16 03:42:17;;;;;;;4.20;1.92;;;9.50;99.90;;;;;;4958080;29;20224;-86
2023/10/16 03:44:45;;;;;;;2.92;1.70;;;9.50;99.90;;;;;;4957488;29;20260;-80
2023/10/16 03:47:14;;;;;;;5.78;1.90;;;9.50;99.90;;;;;;4957495;29;20232;-80
2023/10/16 03:49:41;;;;;;;3.47;1.67;;;9.50;99.90;;;;;;4957512;29;20252;-80
2023/10/16 03:52:11;;;;;;;3.10;1.85;;;9.50;99.90;;;;;;4957374;29;20223;-86
2023/10/16 03:54:39;;;;;;;2.85;1.42;;;9.50;99.90;;;;;;4957099;29;20239;-80
2023/10/16 03:57:09;;;;;;;2.53;1.58;;;9.50;99.90;;;;;;4957331;29;20227;-80
2023/10/16 03:59:38;;;;;;;3.72;1.20;;;9.50;99.90;;;;;;4957348;29;20678;-80
2023/10/16 04:02:07;;;;;;;3.35;1.52;;;9.50;99.90;;;;;;4957220;29;20235;-80
2023/10/16 04:04:34;;;;;;;7.68;1.65;;;9.50;99.90;;;;;;4957534;29;20741;-81
2023/10/16 04:07:03;;;;;;;4.50;1.80;;;9.50;99.90;;;;;;4956717;29;20232;-80
2023/10/16 04:09:33;;;;;;;3.35;2.10;;;9.50;99.90;;;;;;4956036;29;20232;-86
2023/10/16 04:12:04;;;;;;;3.78;1.63;;;9.50;99.90;;;;;;4956893;29;20228;-86
2023/10/16 04:17:12;;;;;;;2.45;1.63;;;9.40;99.90;;;;;;4954255;28;20228;-80
2023/10/16 04:19:52;;;;;;;4.68;2.00;;;9.40;99.90;;;;;;4958306;29;20228;-86
2023/10/16 04:22:23;;;;;;;2.58;1.08;;;9.40;99.90;;;;;;4956963;29;20228;-81
2023/10/16 04:24:59;;;;;;;3.17;1.63;;;9.50;99.90;;;;;;4957095;29;20727;-80
2023/10/16 04:27:38;;;;;;;1.30;0.98;;;9.40;99.90;;;;;;4957269;29;20578;-86
2023/10/16 04:38:31;;;;;;;4.85;1.92;;;9.40;99.90;;;;;;4958114;29;20219;-81
2023/10/16 04:44:22;;;;;;;4.20;1.73;;;9.40;99.90;;;;;;4911964;29;20362;-86
2023/10/16 04:49:28;;;;;;;2.78;1.67;;;9.40;99.90;;;;;;4956043;29;20669;-86
2023/10/16 04:52:06;;;;;;;1.92;1.10;;;9.40;99.90;;;;;;4957072;29;20228;-81
2023/10/16 04:54:58;;;;;;;4.07;1.60;;;9.40;99.90;;;;;;4946790;29;20232;-81
2023/10/16 04:57:47;;;;;;;2.45;1.60;;;9.40;99.90;;;;;;4956463;29;20216;-80
2023/10/16 05:00:54;;;;;;;2.75;1.73;;;9.40;99.90;;;;;;4956112;29;20248;-80
2023/10/16 05:03:23;;;;;;;2.22;2.03;;;9.40;99.90;;;;;;4956111;29;20224;-81
2023/10/16 05:08:59;;;;;;;3.35;2.30;;;9.40;99.90;;;;;;4937937;29;20242;-85
2023/10/16 05:11:27;;;;;;;3.95;2.30;;;9.30;99.90;;;;;;4957607;29;20242;-86
2023/10/16 05:13:56;;;;;;;5.82;2.95;;;9.30;99.90;;;;;;4956590;29;20292;-86
2023/10/16 05:16:31;;;;;;;3.15;2.33;;;9.30;99.90;;;;;;4956700;29;20232;-80
2023/10/16 05:19:04;;;;;;;8.80;3.40;;;9.30;99.90;;;;;;4956310;29;20245;-85
2023/10/16 05:22:02;;;;;;;5.05;2.70;;;9.30;99.90;;;;;;4945498;29;20307;-80
2023/10/16 06:14:11;;;;;;;6.18;2.83;;;9.10;99.90;;;;;;4954933;29;20307;-80
2023/10/16 06:16:39;;;;;;;4.90;3.05;;;9.10;99.90;;;;;;4955261;29;20604;-80
2023/10/16 06:19:16;;;;;;;8.32;3.72;;;9.10;99.90;;;;;;4943635;29;20231;-81
2023/10/16 06:21:47;;;;;;;8.95;3.25;;;9.20;99.90;;;;;;4954311;29;20638;-82
2023/10/16 06:24:35;;;;;;;7.15;2.83;;;9.20;99.90;;;;;;4954561;29;20255;-87
2023/10/16 06:27:08;;;;;;;6.82;2.45;;;9.20;99.90;;;;;;4955850;29;20224;-88
2023/10/16 06:29:36;;;;;;;6.82;2.60;;;9.20;99.90;;;;;;4955552;29;20687;-88
2023/10/16 06:32:07;;;;;;;6.68;3.03;;;9.10;99.90;;;;;;4955755;29;20244;-87
2023/10/16 06:34:36;;;;;;;5.60;2.03;;;9.10;99.90;;;;;;4955369;29;20228;-87
2023/10/16 06:37:06;;;;;;;4.85;2.50;;;9.20;99.90;;;;;;4958243;28;20630;-87
2023/10/16 06:39:36;;;;;;;3.80;1.42;;;9.20;99.90;;;;;;4950926;29;20235;-88
2023/10/16 06:42:11;;;;;;;3.13;1.60;;;9.20;99.90;;;;;;4960077;29;20686;-86
2023/10/16 06:44:38;;;;;;;5.28;2.40;;;9.20;99.90;;;;;;4952748;29;20227;-87
2023/10/16 06:47:05;;;;;;;3.90;3.08;;;9.30;99.90;;;;;;4958211;29;20238;-87
2023/10/16 06:49:36;;;;;;;6.55;3.08;;;9.30;99.90;;;;;;4958607;29;20231;-87
2023/10/16 06:52:05;;;;;;;8.27;2.42;;;9.30;99.90;;;;;;4959437;29;20254;-87
2023/10/16 06:54:37;;;;;;;3.25;2.80;;;9.30;99.90;;;;;;4958249;29;20240;-86
2023/10/16 06:57:10;;;;;;;3.65;2.55;;;9.40;99.90;;;;;;4958965;29;20232;-86
2023/10/16 06:59:38;;;;;;;3.92;1.92;;;9.40;99.90;;;;;;4957792;29;20224;-86
2023/10/16 07:02:05;;;;;;;2.83;2.05;;;9.40;99.90;;;;;;4958440;29;20228;-81
2023/10/16 07:04:32;;;;;;;2.33;1.83;;;9.40;99.90;;;;;;4957816;29;20246;-86
2023/10/16 07:07:00;;;;;;;4.05;1.80;;;9.50;99.90;;;;;;4957911;29;20616;-80
2023/10/16 07:09:37;;;;;;;4.53;2.95;;;9.50;99.90;;;;;;4947163;29;20228;-86
2023/10/16 07:12:14;;;;;;;2.60;2.40;;;9.50;99.90;;;;;;4958181;29;20720;-86
2023/10/16 07:15:10;;;;;;;2.65;2.10;;;9.60;99.90;;;;;;4958795;29;20553;-86
2023/10/16 07:17:37;;;;;;;3.80;2.15;;;9.60;99.90;;;;;;4950957;29;20228;-80
2023/10/16 07:20:17;;;;;;;4.03;1.80;;;9.60;99.90;;;;;;4958105;29;20599;-80
2023/10/16 07:22:45;;;;;;;5.40;2.58;;;9.70;99.90;;;;;;4952731;29;20219;-86
2023/10/16 07:25:23;;;;;;;5.05;2.10;;;9.70;99.90;;;;;;4964646;29;20283;-86
2023/10/16 07:27:57;;;;;;;7.03;2.92;;;9.70;99.90;;;;;;4963688;29;20224;-87
2023/10/16 07:30:25;;;;;;;5.53;3.15;;;9.80;99.90;;;;;;4960422;29;20227;-81
2023/10/16 07:32:54;;;;;;;6.05;2.90;;;9.80;99.90;;;;;;4959040;29;20232;-86
2023/10/16 07:35:23;;;;;;;3.53;2.83;;;9.90;99.90;;;;;;4958532;29;20690;-86
2023/10/16 07:37:53;;;;;;;3.30;2.03;;;9.90;99.90;;;;;;4959374;29;20224;-86
2023/10/16 07:40:21;;;;;;;8.55;2.50;;;9.90;99.90;;;;;;4959286;29;20231;-87
2023/10/16 07:42:49;;;;;;;5.40;2.47;;;10.00;99.90;;;;;;4958627;29;20228;-87
2023/10/16 07:45:21;;;;;;;4.00;1.75;;;10.00;99.90;;;;;;4962102;29;20239;-86
2023/10/16 07:47:52;;;;;;;3.67;1.70;;;10.10;99.90;;;;;;4951712;28;20682;-86
2023/10/16 07:50:23;;;;;;;7.55;2.40;;;10.10;99.90;;;;;;4945863;29;20247;-86
2023/10/16 07:53:04;;;;;;;8.48;2.70;;;10.20;99.90;;;;;;4956320;29;20258;-86
2023/10/16 08:01:17;;;;;;;4.55;2.20;;;10.30;99.90;;;;;;4957155;29;20242;-86
2023/10/16 08:03:48;;;;;;;4.50;2.35;;;10.40;99.90;;;;;;4958490;29;20232;-86
2023/10/16 08:06:42;;;;;;;12.10;2.45;;;10.40;99.90;;;;;;4957807;29;20232;-86
2023/10/16 08:11:58;;;;;;;6.35;2.20;;;10.40;99.90;;;;;;4957874;29;20242;-86
2023/10/16 08:14:25;;;;;;;5.78;1.98;;;10.50;99.90;;;;;;4959084;29;20227;-87
2023/10/16 08:16:58;;;;;;;5.13;1.92;;;10.50;99.90;;;;;;4957885;29;20283;-87
2023/10/16 08:19:25;;;;;;;2.97;2.20;;;10.50;99.90;;;;;;4957158;29;20232;-81
2023/10/16 08:21:58;;;;;;;4.13;2.03;;;10.60;99.90;;;;;;4957778;29;20228;-87
2023/10/16 08:24:28;;;;;;;2.72;1.67;;;10.70;99.90;;;;;;4956928;29;20335;-81
2023/10/16 08:27:10;;;;;;;3.63;1.88;;;10.70;99.90;;;;;;4957145;29;20228;-81
2023/10/16 08:29:50;;;;;;;4.38;2.08;;;10.80;99.90;;;;;;4957628;29;20216;-81
2023/10/16 08:35:09;;;;;;;2.75;1.75;;;10.90;99.90;;;;;;4948205;29;20235;-86
2023/10/16 08:37:40;;;;;;;3.10;2.70;;;11.00;99.90;;;;;;4958008;29;20227;-87
2023/10/16 08:40:19;;;;;;;3.30;2.53;;;11.00;99.90;;;;;;4957293;29;20239;-86
2023/10/16 08:42:50;;;;;;;5.60;3.28;;;11.10;99.90;;;;;;4957250;29;20228;-87
2023/10/16 08:45:24;;;;;;;6.10;2.40;;;11.00;99.90;;;;;;4956767;29;20240;-82
2023/10/16 08:48:17;;;;;;;4.03;2.03;;;11.10;99.90;;;;;;4956690;29;20228;-86
2023/10/16 08:50:52;;;;;;;4.07;1.90;;;11.10;99.90;;;;;;4958828;29;20639;-81
2023/10/16 08:53:32;;;;;;;8.85;2.28;;;11.10;99.90;;;;;;4956692;29;20227;-86
2023/10/16 08:56:03;;;;;;;4.03;2.10;;;11.10;99.90;;;;;;4957433;28;20232;-86
2023/10/16 08:58:39;;;;;;;3.65;2.13;;;11.10;99.90;;;;;;4956205;29;20311;-86
2023/10/16 09:01:12;;;;;;;3.90;2.67;;;11.20;99.90;;;;;;4957229;28;20258;-86
2023/10/16 09:03:44;;;;;;;4.85;2.97;;;11.20;99.90;;;;;;4946775;28;20686;-86
2023/10/16 09:06:14;;;;;;;5.65;3.70;;;11.30;99.90;;;;;;4955950;29;20682;-81
2023/10/16 09:08:41;;;;;;;7.00;3.33;;;11.30;99.90;;;;;;4946923;29;20235;-80
2023/10/16 09:11:10;;;;;;;6.00;1.98;;;11.40;99.90;;;;;;4955692;29;20220;-80
2023/10/16 09:13:45;;;;;;;2.00;1.42;;;11.50;99.90;;;;;;4955186;29;20232;-80
2023/10/16 09:16:13;;;;;;;4.68;2.13;;;11.50;99.90;;;;;;4955818;29;20235;-80
2023/10/16 09:18:41;;;;;;;1.85;1.65;;;11.60;99.90;;;;;;4955211;29;20224;-81
2023/10/16 09:21:22;;;;;;;8.32;2.53;;;11.70;99.90;;;;;;4941264;29;20227;-81
2023/10/16 09:23:58;;;;;;;2.45;2.25;;;11.70;99.90;;;;;;4955720;29;20697;-81
2023/10/16 09:26:32;;;;;;;3.17;1.90;;;11.70;99.90;;;;;;4956135;29;20315;-81
2023/10/16 09:29:04;;;;;;;5.30;3.00;;;11.80;99.90;;;;;;4959189;29;20228;-86
2023/10/16 09:31:35;;;;;;;7.70;2.72;;;11.80;99.90;;;;;;4969537;29;20238;-86
2023/10/16 09:34:02;;;;;;;5.13;2.38;;;11.80;99.90;;;;;;4963541;29;20228;-87
2023/10/16 09:36:39;;;;;;;4.00;2.45;;;11.80;99.90;;;;;;4972420;29;20310;-87
2023/10/16 09:39:17;;;;;;;2.97;1.50;;;11.90;99.90;;;;;;4971193;29;20247;-87
2023/10/16 09:42:20;;;;;;;4.25;2.38;;;11.90;99.90;;;;;;4970677;29;20232;-87
2023/10/16 09:45:09;;;;;;;2.17;1.70;;;12.00;99.90;;;;;;4933586;29;20231;-87
2023/10/16 09:47:48;;;;;;;5.28;2.13;;;12.10;99.90;;;;;;4969567;28;20232;-87
2023/10/16 09:50:21;;;;;;;3.75;1.50;;;12.10;99.90;;;;;;4967494;28;20227;-87
2023/10/16 09:52:53;;;;;;;7.05;2.47;;;12.20;99.90;;;;;;4973664;28;20231;-83
2023/10/16 09:55:48;;;;;;;5.13;1.67;;;12.20;99.90;;;;;;4971021;28;20290;-82
2023/10/16 09:58:18;;;;;;;2.88;1.63;;;12.30;99.90;;;;;;4974078;28;20231;-82
2023/10/16 10:01:06;;;;;;;2.70;1.52;;;12.30;99.90;;;;;;4969758;28;20294;-94
2023/10/16 10:03:38;;;;;;;3.72;1.70;;;12.40;99.90;;;;;;4964148;28;20234;-83
2023/10/16 10:06:34;;;;;;;2.10;1.42;;;12.40;99.90;;;;;;4975016;28;20728;-84
2023/10/16 10:12:47;;;;;;;5.72;2.03;;;12.60;99.90;;;;;;4966187;28;20318;-94
2023/10/16 10:15:36;;;;;;;4.30;1.70;;;12.70;99.90;;;;;;4979084;28;20229;-93
2023/10/16 10:21:18;;;;;;;5.22;1.80;;;12.90;99.90;;;;;;4882469;29;20312;-82
2023/10/16 10:26:52;;;;;;;10.32;5.18;;;12.90;99.90;;;;;;5189178;23;20573;-92
2023/10/16 10:29:25;;;;;;;8.15;5.65;;;12.90;99.90;;;;;;4940705;29;20229;-92
2023/10/16 10:32:12;;;;;;;7.20;3.80;;;12.90;99.90;;;;;;4949165;28;20258;-83
2023/10/16 10:34:47;;;;;;;2.83;2.17;;;12.80;99.90;;;;;;4955345;28;20240;-94
2023/10/16 10:37:46;;;;;;;2.72;1.88;;;12.80;99.90;;;;;;4947660;28;20323;-92
2023/10/16 10:40:21;;;;;;;2.65;1.70;;;12.80;99.90;;;;;;4954338;28;20227;-82
2023/10/16 10:43:17;;;;;;;5.20;2.35;;;12.70;99.90;;;;;;4947525;29;20318;-93
2023/10/16 10:45:56;;;;;;;4.40;2.22;;;12.70;99.90;;;;;;4940446;28;20656;-83
2023/10/16 10:48:43;;;;;;;8.82;2.03;;;12.70;99.90;;;;;;4957279;28;20220;-93
2023/10/16 10:51:18;;;;;;;4.65;1.70;;;12.80;99.90;;;;;;4953582;28;20227;-92
2023/10/16 10:53:59;;;;;;;4.90;1.40;;;12.80;99.90;;;;;;4957941;28;20283;-94
2023/10/16 10:56:39;;;;;;;4.18;2.00;;;12.80;99.90;;;;;;4949044;28;20232;-94
2023/10/16 10:59:10;;;;;;;4.85;2.10;;;12.80;99.90;;;;;;4934513;29;20238;-83
2023/10/16 11:02:08;;;;;;;4.90;1.83;;;12.80;99.90;;;;;;4954152;28;20232;-92
2023/10/16 11:04:38;;;;;;;2.78;1.83;;;12.90;99.90;;;;;;4957245;28;20246;-93
2023/10/16 11:07:23;;;;;;;3.03;1.80;;;13.00;99.90;;;;;;4962256;28;20235;-93
2023/10/16 11:09:57;;;;;;;1.85;1.15;;;13.00;99.90;;;;;;4955405;28;20236;-83
2023/10/16 11:12:30;;;;;;;2.35;1.80;;;13.10;99.90;;;;;;4953443;28;20303;-83
2023/10/16 11:15:27;;;;;;;1.58;1.17;;;13.10;99.90;;;;;;4955186;28;20228;-83
2023/10/16 11:18:05;;;;;;;3.05;1.98;;;13.10;99.90;;;;;;4940990;29;20232;-83
2023/10/16 11:21:36;;;;;;;4.45;1.92;;;13.20;99.90;;;;;;4943344;29;20279;-83
2023/10/16 11:24:13;;;;;;;4.00;1.65;;;13.20;99.90;;;;;;4887893;28;20299;-83
2023/10/16 11:26:47;;;;;;;1.90;1.70;;;13.20;99.90;;;;;;4958484;28;20227;-83
2023/10/16 11:29:33;;;;;;;5.13;2.40;;;13.20;99.90;;;;;;4958963;28;20231;-94
2023/10/16 11:32:06;;;;;;;3.85;3.40;;;13.30;99.90;;;;;;4961235;28;20235;-94
2023/10/16 11:37:45;;;;;;;11.52;6.10;;;13.30;99.90;;;;;;4923535;29;20231;-83
2023/10/16 11:40:39;;;;;;;5.15;4.43;;;13.30;99.90;;;;;;4935642;29;20805;-94
2023/10/16 11:43:24;;;;;;;6.80;3.92;;;13.40;99.90;;;;;;4950744;28;20690;-83
2023/10/16 11:45:57;;;;;;;4.30;2.78;;;13.40;99.90;;;;;;4947113;29;20227;-84
2023/10/16 11:54:19;;;;;;;2.90;2.60;;;13.50;99.90;;;;;;4948290;28;20468;-84
2023/10/16 11:56:53;;;;;;;3.38;1.98;;;13.50;99.90;;;;;;4937593;29;20539;-84
2023/10/16 11:59:26;;;;;;;4.55;1.77;;;13.60;99.90;;;;;;4930451;29;20718;-82
2023/10/16 12:02:02;;;;;;;5.60;2.37;;;13.50;99.90;;;;;;4947323;28;20240;-93
2023/10/16 12:05:18;;;;;;;3.47;1.50;;;13.60;99.90;;;;;;4951500;29;20530;-93
2023/10/16 12:15:12;;;;;;;4.53;2.77;;;13.60;99.90;;;;;;4824810;29;20228;-83
2023/10/16 12:18:26;;;;;;;;;;;;;;;;;;;;;
2023/10/16 12:21:31;;;;;;;8.07;3.30;;;13.60;99.90;;;;;;4862312;29;21810;-83
2023/10/16 12:24:23;;;;;;;31.98;8.85;;;13.60;99.90;;;;;;4882994;29;20231;-84
2023/10/16 12:27:23;;;;;;;19.33;7.80;;;13.60;99.90;;;;;;4898543;29;20247;-83
2023/10/16 12:30:20;;;;;;;8.15;3.90;;;13.60;99.90;;;;;;4950750;29;20483;-83
2023/10/16 12:36:16;;;;;;;19.65;5.80;;;13.60;99.90;;;;;;4950416;29;20718;-83
2023/10/16 12:39:20;;;;;;;9.88;4.30;;;13.60;99.90;;;;;;4938615;29;20244;-83
2023/10/16 12:42:06;;;;;;;7.35;2.60;;;13.60;99.90;;;;;;4908752;29;20225;-83
2023/10/16 12:44:36;;;;;;;4.07;1.90;;;13.60;99.90;;;;;;4952078;29;20246;-84
2023/10/16 12:53:55;;;;;;;1.63;1.52;;;13.60;99.90;;;;;;4859846;29;20694;-84
2023/10/16 12:57:16;;;;;;;;;;;;;;;;;;;;;
2023/10/16 13:02:55;;;;;;;2.37;1.80;;;13.60;99.90;;;;;;4928872;29;20225;-83
2023/10/16 13:09:14;;;;;;;;;;;;;;;;;;;;;
2023/10/16 13:12:13;;;;;;;4.10;2.83;;;13.60;99.90;;;;;;4883127;29;20481;-84
2023/10/16 13:30:41;;;;;;;;;;;;;;;;;;;;;
2023/10/16 13:33:55;;;;;;;2.35;1.30;;;13.70;99.90;;;;;;4941841;29;20477;-84
2023/10/16 13:36:28;;;;;;;1.80;1.20;;;13.70;99.90;;;;;;4957324;29;20592;-84
2023/10/16 13:39:08;;;;;;;4.68;2.22;;;13.80;99.90;;;;;;4953590;29;20690;-84
2023/10/16 13:42:02;;;;;;;4.60;2.07;;;13.80;99.90;;;;;;4944721;29;20235;-84
2023/10/16 13:45:12;;;;;;;2.60;2.00;;;13.80;99.90;;;;;;4935373;29;20506;-84
2023/10/16 13:48:33;;;;;;;;;;;;;;;;;;;;;
2023/10/16 13:51:47;;;;;;;;;;;;;;;;;;;;;
2023/10/16 13:58:17;;;;;;;5.63;3.80;;;13.80;99.90;;;;;;4844066;29;20513;-84
2023/10/16 14:00:47;;;;;;;3.73;2.50;;;13.80;99.90;;;;;;4909007;29;21044;-85
2023/10/16 14:07:23;;;;;;;3.53;3.00;;;13.80;99.90;;;;;;4831420;29;20988;-84
2023/10/16 14:26:13;;;;;;;6.17;3.43;;;13.80;99.90;;;;;;4920927;29;20848;-83
2023/10/16 14:39:04;;;;;;;4.10;2.37;;;13.70;99.90;;;;;;4769984;29;20492;-84
2023/10/16 14:41:44;;;;;;;1.67;1.57;;;13.70;99.90;;;;;;4838787;29;20575;-94
2023/10/16 14:44:16;;;;;;;2.38;1.40;;;13.70;99.90;;;;;;4904114;29;20476;-85
2023/10/16 14:46:57;;;;;;;1.30;1.20;;;13.70;99.90;;;;;;4938630;29;20705;-93
2023/10/16 14:49:38;;;;;;;2.80;1.57;;;13.70;99.90;;;;;;4939907;29;20473;-93
2023/10/16 14:52:26;;;;;;;;;;;;;;;;;;;;;
2023/10/16 14:58:18;;;;;;;1.63;1.50;;;13.70;99.90;;;;;;4931288;29;20469;-84
2023/10/16 15:01:00;;;;;;;3.23;1.90;;;13.70;99.90;;;;;;4931816;29;20590;-93
2023/10/16 15:09:48;;;;;;;1.47;1.37;;;13.70;99.90;;;;;;4919274;29;20520;-84
2023/10/16 15:19:12;;;;;;;2.33;1.40;;;13.50;99.90;;;;;;4849978;29;21095;-84
2023/10/16 15:44:18;;;;;;;5.03;4.00;;;13.20;99.90;;;;;;4829171;29;20477;-92
2023/10/16 15:47:44;;;;;;;5.90;5.30;;;13.20;99.90;;;;;;4799976;29;20998;-83
2023/10/16 15:50:21;;;;;;;10.10;7.00;;;13.10;99.90;;;;;;4831386;29;20487;-84
2023/10/16 15:53:07;;;;;;;6.10;5.50;;;13.10;99.90;;;;;;4898646;29;20521;-83
2023/10/16 15:55:46;;;;;;;5.30;4.10;;;13.10;99.90;;;;;;4901491;29;20305;-84
2023/10/16 16:01:57;;;;;;;5.00;4.23;;;13.00;99.90;;;;;;4798042;29;20310;-92
2023/10/16 16:04:26;;;;;;;7.13;3.40;;;12.90;99.90;;;;;;4891590;29;20548;-93
2023/10/16 16:07:10;;;;;;;6.27;4.07;;;12.90;99.90;;;;;;4930522;29;20240;-94
2023/10/16 16:10:10;;;;;;;;;;;;;;;;;;;;;
2023/10/16 16:16:45;;;;;;;7.53;3.60;;;12.80;99.90;;;;;;4843214;29;20235;-91
2023/10/16 16:19:19;;;;;;;3.40;3.10;;;12.80;99.90;;;;;;4819595;29;20251;-93
2023/10/16 16:22:03;;;;;;;4.75;4.25;;;12.70;99.90;;;;;;4851833;29;20227;-93
2023/10/16 16:25:16;;;;;;;5.40;3.05;;;12.70;99.90;;;;;;4847576;29;20227;-94
2023/10/16 16:27:50;;;;;;;4.57;4.13;;;12.70;99.90;;;;;;4852001;29;20360;-83
2023/10/16 16:30:29;;;;;;;5.53;3.70;;;12.60;99.90;;;;;;4902388;29;21003;-83
2023/10/16 16:33:09;;;;;;;5.80;3.90;;;12.60;99.90;;;;;;4949040;29;20343;-82
2023/10/16 16:36:17;;;;;;;6.80;4.45;;;12.60;99.90;;;;;;4912519;29;20242;-83
2023/10/16 16:42:13;;;;;;;5.55;3.53;;;12.50;99.90;;;;;;4873573;29;20219;-93
2023/10/16 16:44:42;;;;;;;4.40;2.97;;;12.50;99.90;;;;;;4882266;29;20245;-83
2023/10/16 16:47:11;;;;;;;3.67;2.85;;;12.40;99.90;;;;;;4904943;29;20231;-93
2023/10/16 16:52:54;;;;;;;3.08;2.38;;;12.40;99.90;;;;;;4937903;29;20571;-91
2023/10/16 16:55:46;;;;;;;5.63;3.40;;;12.40;99.90;;;;;;4940872;29;20229;-82
2023/10/16 17:01:30;;;;;;;5.70;5.10;;;12.40;99.90;;;;;;4902699;29;20225;-93
2023/10/16 17:04:54;;;;;;;7.57;5.78;;;12.40;99.90;;;;;;4910883;29;20247;-93
2023/10/16 17:10:27;;;;;;;6.55;4.78;;;12.30;99.90;;;;;;4937515;29;20730;-82
2023/10/16 17:13:00;;;;;;;12.13;8.48;;;12.30;99.90;;;;;;4927442;29;20224;-83
2023/10/16 17:15:29;;;;;;;20.17;13.48;;;12.30;99.90;;;;;;4940115;29;20239;-93
2023/10/16 17:19:00;;;;;;;14.18;12.60;;;12.30;99.90;;;;;;4941179;29;20224;-92
2023/10/16 17:21:43;;;;;;;12.70;10.00;;;12.30;99.90;;;;;;4943856;29;20252;-92
2023/10/16 17:24:12;;;;;;;10.80;8.02;;;12.30;99.90;;;;;;4930146;29;20227;-93
2023/10/16 17:26:53;;;;;;;8.35;6.88;;;12.30;99.90;;;;;;4933255;29;20245;-93
2023/10/16 17:30:13;;;;;;;6.15;5.10;;;12.30;99.90;;;;;;4942529;29;20224;-93
2023/10/16 17:32:55;;;;;;;6.40;5.80;;;12.30;99.90;;;;;;4936779;29;20229;-93
2023/10/16 17:35:38;;;;;;;10.20;4.95;;;12.20;99.90;;;;;;4936595;29;20588;-93
2023/10/16 17:38:10;;;;;;;7.40;5.07;;;12.30;99.90;;;;;;4938348;29;20255;-93
2023/10/16 17:40:45;;;;;;;4.78;4.22;;;12.20;99.90;;;;;;4920491;29;20687;-92
2023/10/16 17:43:30;;;;;;;7.27;4.80;;;12.20;99.90;;;;;;4930263;29;20686;-94